TimeCDT,TemperatureF,Dew PointF,Humidity,Sea Level PressureIn,VisibilityMPH,Wind Direction,Wind SpeedMPH,Gust SpeedMPH,PrecipitationIn,Events,Conditions,WindDirDegrees,DateUTC
12:55 AM,28.9,25.0,85,30.23,10.0,ENE,9.2,-,N/A,,Overcast,70,2013-04-05 05:55:00
1:55 AM,30.0,25.0,82,30.22,10.0,East,11.5,-,N/A,,Mostly Cloudy,90,2013-04-05 06:55:00
2:55 AM,30.0,21.0,69,30.20,10.0,ENE,13.8,-,N/A,,Overcast,70,2013-04-05 07:55:00
3:55 AM,30.0,18.0,61,30.19,10.0,East,6.9,-,N/A,,Mostly Cloudy,90,2013-04-05 08:55:00
4:55 AM,30.0,19.0,64,30.18,10.0,East,5.8,-,N/A,,Scattered Clouds,100,2013-04-05 09:55:00
5:55 AM,30.0,19.0,64,30.17,10.0,ESE,8.1,-,N/A,,Clear,120,2013-04-05 10:55:00
6:55 AM,28.4,19.4,69,30.11,10.0,ESE,9.2,-,N/A,,Partly Cloudy,120,2013-04-05 11:55:00
7:55 AM,30.0,19.9,66,30.13,10.0,SE,11.5,-,N/A,,Overcast,130,2013-04-05 12:55:00
8:55 AM,32.0,21.9,66,30.09,10.0,ESE,17.3,21.9,N/A,,Mostly Cloudy,120,2013-04-05 13:55:00
9:55 AM,35.1,21.0,57,30.06,10.0,SE,15.0,25.3,N/A,,Mostly Cloudy,130,2013-04-05 14:55:00
10:55 AM,39.0,21.0,49,30.03,10.0,SE,19.6,27.6,N/A,,Partly Cloudy,130,2013-04-05 15:55:00
11:55 AM,42.1,21.9,45,29.98,10.0,SE,19.6,29.9,N/A,,Clear,130,2013-04-05 16:55:00
12:55 PM,45.0,21.9,40,29.92,10.0,SE,18.4,33.4,N/A,,Clear,140,2013-04-05 17:55:00
1:55 PM,48.0,25.0,41,29.89,10.0,SE,18.4,27.6,N/A,,Scattered Clouds,140,2013-04-05 18:55:00
2:55 PM,48.9,27.0,43,29.84,10.0,SSE,19.6,32.2,N/A,,Clear,150,2013-04-05 19:55:00
3:55 PM,54.0,28.9,38,29.78,10.0,SE,17.3,28.8,N/A,,Clear,140,2013-04-05 20:55:00
4:55 PM,54.0,30.0,40,29.73,10.0,SE,21.9,31.1,N/A,,Clear,130,2013-04-05 21:55:00
5:55 PM,57.0,32.0,39,29.67,10.0,ESE,17.3,26.5,N/A,,Clear,120,2013-04-05 22:55:00
6:55 PM,55.9,33.1,42,29.65,10.0,ESE,15.0,21.9,N/A,,Clear,120,2013-04-05 23:55:00
7:55 PM,55.0,35.1,47,29.62,10.0,SE,10.4,-,N/A,,Clear,130,2013-04-06 00:55:00
8:55 PM,54.0,36.0,51,29.61,10.0,East,12.7,-,N/A,,Clear,100,2013-04-06 01:55:00
9:55 PM,48.9,36.0,61,29.60,10.0,ESE,15.0,21.9,N/A,,Clear,120,2013-04-06 02:55:00
10:55 PM,48.9,36.0,61,29.56,10.0,ESE,16.1,23.0,N/A,,Clear,120,2013-04-06 03:55:00
11:55 PM,52.0,37.0,57,29.52,10.0,SE,18.4,24.2,N/A,,Clear,130,2013-04-06 04:55:00